Oak Grove, Oregon
Current Conditions -  °F | °C
As of 8:53 PM on Wednesday 22 Oct 2014 (Local Time) from KPDX Reporting Station
Broken Clouds Broken Clouds  
Wind Chill: 58°   Ceiling: 4500
Heat Index: 58°   Visibility: 10mi
Dew Point: 55°   Wind: 9mph
Humidity: 90%   Direction: 180°S
Pressure: 29.73"   Gusts: NA
Location:  45.42°N, 122.64°W
Report Text: KPDX 230353Z 18008KT 10SM FEW015 BKN045 BKN070 14/13 A2973 RMK AO2 RAE00 SLP065 P0000 T01440128
Loading
Personal Weather Stations






























Interactive Weather Map
Tropical Storm Tracking
New forecast layout! Learn more

10-Day Weather Forecast

Advertisements
Track Severe Weather on mobile